Allen, South Dakota
Current Conditions -  °F | °C
As of 6:52 AM on Monday 26 Jan 2015 (Local Time) from KIEN Reporting Station
Clear Clear  
Wind Chill: -2°   Ceiling: Unl
Heat Index:   Visibility: 10mi
Dew Point: -3°   Wind: 7mph
Humidity: 75%   Direction: 240°WSW
Pressure: 30.05"   Gusts: NA
Location:  43.28°N, 101.93°W
Report Text: KIEN 261352Z AUTO 24006KT 10SM CLR 01/M03 A3005 RMK AO2 SLP192 T00111028
Loading
Personal Weather Stations






























Interactive Weather Map New forecast layout! Learn more

10-Day Weather Forecast

Advertisements
Track Severe Weather on mobile